createdAt,value
2023-03-31T00:00:58.255Z,3.03
2023-03-31T00:03:26.749Z,3.57
2023-03-31T00:05:58.799Z,2.60
2023-03-31T00:08:30.667Z,1.63
2023-03-31T00:11:02.282Z,2.53
2023-03-31T00:13:31.370Z,5.50
2023-03-31T00:16:00.387Z,12.03
2023-03-31T00:18:30.023Z,6.97
2023-03-31T00:21:08.960Z,6.57
2023-03-31T00:23:37.100Z,4.53
2023-03-31T00:26:07.148Z,7.50
2023-03-31T00:28:35.500Z,5.77
2023-03-31T00:31:04.379Z,2.30
2023-03-31T00:33:32.648Z,2.80
2023-03-31T00:36:02.309Z,2.53
2023-03-31T00:38:31.106Z,9.03
2023-03-31T00:40:59.839Z,2.20
2023-03-31T00:43:34.039Z,3.33
2023-03-31T00:46:17.944Z,2.23
2023-03-31T00:48:51.564Z,3.33
2023-03-31T00:51:22.375Z,5.33
2023-03-31T00:53:57.569Z,5.13
2023-03-31T00:56:27.649Z,4.20
2023-03-31T00:59:02.264Z,4.13
2023-03-31T01:01:30.705Z,5.60
2023-03-31T01:03:59.366Z,6.73
2023-03-31T01:06:31.013Z,7.60
2023-03-31T01:08:59.571Z,6.30
2023-03-31T01:11:30.915Z,6.60
2023-03-31T01:14:00.802Z,3.77
2023-03-31T01:16:29.193Z,5.50
2023-03-31T01:18:57.726Z,2.73
2023-03-31T01:22:11.019Z,4.10
2023-03-31T01:25:10.677Z,8.13
2023-03-31T01:27:57.997Z,3.93
2023-03-31T01:31:13.964Z,6.10
2023-03-31T01:34:19.548Z,8.10
2023-03-31T01:37:29.439Z,4.13
2023-03-31T01:40:20.280Z,8.33
2023-03-31T01:42:54.565Z,6.80
2023-03-31T01:45:33.250Z,2.27
2023-03-31T01:48:06.714Z,4.07
2023-03-31T01:50:40.369Z,8.80
2023-03-31T01:53:18.043Z,4.20
2023-03-31T01:55:54.360Z,5.20
2023-03-31T01:58:26.818Z,4.90
2023-03-31T02:01:01.980Z,4.87
2023-03-31T02:03:34.598Z,4.17
2023-03-31T02:06:09.156Z,4.70
2023-03-31T02:08:41.867Z,6.10
2023-03-31T02:11:11.839Z,7.43
2023-03-31T02:13:44.640Z,4.73
2023-03-31T02:16:19.141Z,5.63
2023-03-31T02:18:50.088Z,6.73
2023-03-31T02:21:18.849Z,5.63
2023-03-31T02:23:49.401Z,4.13
2023-03-31T02:26:24.752Z,5.57
2023-03-31T02:28:53.150Z,7.60
2023-03-31T02:31:29.889Z,6.40
2023-03-31T02:33:58.219Z,6.43
2023-03-31T02:36:26.942Z,4.77
2023-03-31T02:38:59.076Z,6.20
2023-03-31T02:42:25.373Z,4.50
2023-03-31T02:44:54.828Z,5.20
2023-03-31T02:47:23.795Z,5.67
2023-03-31T02:49:55.564Z,2.83
2023-03-31T02:52:40.322Z,7.37
2023-03-31T02:55:23.025Z,3.80
2023-03-31T02:58:19.227Z,8.83
2023-03-31T03:01:04.950Z,6.63
2023-03-31T03:03:44.205Z,5.27
2023-03-31T03:06:22.199Z,3.47
2023-03-31T03:09:14.804Z,2.90
2023-03-31T03:11:49.241Z,5.03
2023-03-31T03:14:27.124Z,2.97
2023-03-31T03:17:02.769Z,5.53
2023-03-31T03:19:31.071Z,3.47
2023-03-31T03:21:59.454Z,4.60
2023-03-31T03:24:29.687Z,6.77
2023-03-31T03:26:58.538Z,5.43
2023-03-31T03:29:27.224Z,4.73
2023-03-31T03:31:56.642Z,5.63
2023-03-31T03:34:25.647Z,2.90
2023-03-31T03:36:53.740Z,3.60
2023-03-31T03:39:21.991Z,1.77
2023-03-31T03:41:50.081Z,6.47
2023-03-31T03:44:18.272Z,2.73
2023-03-31T03:46:46.398Z,2.77
2023-03-31T03:49:16.050Z,5.77
2023-03-31T03:51:44.179Z,3.70
2023-03-31T03:54:12.295Z,4.77
2023-03-31T03:56:40.609Z,2.57
2023-03-31T03:59:08.682Z,9.10
2023-03-31T04:01:37.307Z,3.00
2023-03-31T04:04:05.947Z,3.60
2023-03-31T04:06:35.942Z,3.70
2023-03-31T04:09:04.326Z,4.03
2023-03-31T04:11:32.735Z,5.27
2023-03-31T04:14:00.865Z,6.00
2023-03-31T04:16:29.243Z,6.63
2023-03-31T04:18:59.521Z,4.93
2023-03-31T04:21:27.679Z,3.43
2023-03-31T04:24:01.610Z,5.93
2023-03-31T04:26:39.161Z,4.60
2023-03-31T04:29:07.719Z,3.10
2023-03-31T04:31:38.843Z,5.80
2023-03-31T04:34:13.190Z,2.17
2023-03-31T04:36:47.277Z,4.50
2023-03-31T04:39:18.542Z,3.57
2023-03-31T04:41:46.689Z,6.60
2023-03-31T04:44:14.926Z,4.40
2023-03-31T04:46:43.120Z,6.67
2023-03-31T04:49:11.237Z,5.80
2023-03-31T04:51:39.442Z,6.40
2023-03-31T04:54:07.812Z,6.70
2023-03-31T04:56:37.290Z,6.37
2023-03-31T04:59:05.434Z,4.53
2023-03-31T05:01:36.417Z,4.30
2023-03-31T05:04:05.082Z,8.33
2023-03-31T05:06:33.703Z,7.63
2023-03-31T05:09:01.917Z,3.67
2023-03-31T05:11:30.116Z,5.37
2023-03-31T05:13:59.652Z,5.00
2023-03-31T05:16:27.840Z,6.20
2023-03-31T05:18:56.198Z,4.57
2023-03-31T05:21:24.464Z,5.00
2023-03-31T05:23:52.611Z,6.73
2023-03-31T05:26:22.395Z,5.60
2023-03-31T05:28:50.573Z,5.50
2023-03-31T05:31:20.155Z,5.87
2023-03-31T05:33:48.398Z,6.20
2023-03-31T05:36:18.437Z,4.70
2023-03-31T05:38:47.733Z,3.23
2023-03-31T05:41:17.063Z,6.30
2023-03-31T05:43:45.261Z,3.80
2023-03-31T05:46:14.051Z,4.93
2023-03-31T05:48:44.862Z,8.47
2023-03-31T05:51:13.017Z,2.43
2023-03-31T05:53:42.020Z,4.03
2023-03-31T05:56:10.806Z,5.30
2023-03-31T05:58:39.112Z,6.13
2023-03-31T06:01:10.077Z,5.97
2023-03-31T06:03:41.349Z,5.20
2023-03-31T06:06:14.823Z,8.93
2023-03-31T06:08:44.016Z,4.70
2023-03-31T06:11:14.145Z,3.27
2023-03-31T06:13:42.887Z,7.63
2023-03-31T06:16:12.456Z,4.53
2023-03-31T06:18:41.628Z,26.63
2023-03-31T06:21:13.608Z,8.90
2023-03-31T06:23:41.795Z,6.10
2023-03-31T06:26:10.300Z,4.37
2023-03-31T06:28:38.466Z,5.30
2023-03-31T06:31:08.695Z,4.37
2023-03-31T06:33:37.485Z,5.80
2023-03-31T06:36:06.915Z,5.37
2023-03-31T06:38:38.451Z,2.17
2023-03-31T06:41:08.057Z,4.87
2023-03-31T06:43:36.877Z,7.50
2023-03-31T06:46:05.919Z,10.43
2023-03-31T06:48:34.305Z,6.40
2023-03-31T06:51:04.386Z,5.97
2023-03-31T06:53:32.737Z,5.40
2023-03-31T06:56:02.624Z,5.10
2023-03-31T06:58:31.548Z,8.90
2023-03-31T07:01:00.352Z,4.17
2023-03-31T07:03:29.612Z,14.30
2023-03-31T07:05:58.116Z,64.70
2023-03-31T07:08:26.648Z,12.27
2023-03-31T07:10:57.889Z,5.47
2023-03-31T07:13:28.654Z,4.67
2023-03-31T07:15:57.354Z,5.20
2023-03-31T07:18:34.785Z,6.73
2023-03-31T07:21:05.095Z,4.90
2023-03-31T07:23:35.285Z,6.90
2023-03-31T07:26:03.425Z,5.10
2023-03-31T07:28:33.950Z,6.27
2023-03-31T07:31:02.117Z,13.27
2023-03-31T07:33:30.237Z,7.43
2023-03-31T07:36:10.912Z,6.10
2023-03-31T07:38:41.241Z,7.50
2023-03-31T07:41:12.116Z,7.73
2023-03-31T07:43:42.074Z,8.03
2023-03-31T07:46:17.625Z,6.00
2023-03-31T07:48:47.694Z,12.27
2023-03-31T07:51:16.943Z,27.97
2023-03-31T07:53:45.324Z,12.17
2023-03-31T07:56:14.242Z,9.93
2023-03-31T07:58:43.842Z,7.93
2023-03-31T08:01:17.037Z,8.53
2023-03-31T08:03:45.528Z,12.50
2023-03-31T08:06:18.329Z,7.03
2023-03-31T08:08:46.830Z,8.50
2023-03-31T08:11:15.341Z,10.93
2023-03-31T08:13:44.904Z,9.20
2023-03-31T08:16:13.165Z,10.37
2023-03-31T08:18:41.403Z,25.57
2023-03-31T08:21:10.795Z,20.57
2023-03-31T08:23:39.057Z,8.53
2023-03-31T08:26:14.508Z,14.23
2023-03-31T08:28:46.267Z,11.80
2023-03-31T08:31:16.486Z,13.93
2023-03-31T08:33:44.735Z,9.87
2023-03-31T08:36:13.661Z,11.80
2023-03-31T08:38:45.979Z,16.77
2023-03-31T08:41:38.905Z,9.70
2023-03-31T08:44:13.248Z,12.17
2023-03-31T08:46:42.755Z,13.73
2023-03-31T08:49:16.620Z,11.20
2023-03-31T08:51:50.095Z,26.80
2023-03-31T08:54:22.486Z,11.57
2023-03-31T08:56:52.041Z,14.67
2023-03-31T08:59:30.390Z,10.30
2023-03-31T09:02:06.019Z,13.23
2023-03-31T09:04:56.448Z,12.47
2023-03-31T09:07:34.821Z,10.47
2023-03-31T09:10:18.521Z,18.73
2023-03-31T09:12:54.986Z,12.17
2023-03-31T09:15:29.514Z,10.17
2023-03-31T09:18:02.332Z,8.07
2023-03-31T09:20:34.065Z,13.53
2023-03-31T09:23:08.722Z,9.73
2023-03-31T09:25:41.496Z,15.67
2023-03-31T09:28:16.586Z,10.40
2023-03-31T09:30:49.758Z,5.83
2023-03-31T09:33:20.685Z,15.57
2023-03-31T09:35:51.437Z,12.47
2023-03-31T09:38:20.373Z,10.57
2023-03-31T09:40:49.012Z,10.83
2023-03-31T09:43:23.236Z,11.07
2023-03-31T09:46:14.796Z,6.83
2023-03-31T09:48:45.048Z,11.17
2023-03-31T09:51:21.582Z,6.60
2023-03-31T09:53:54.839Z,7.97
2023-03-31T09:56:47.077Z,5.57
2023-03-31T09:59:17.980Z,7.17
2023-03-31T10:01:50.629Z,10.03
2023-03-31T10:04:22.882Z,10.00
2023-03-31T10:06:53.054Z,8.73
2023-03-31T10:09:23.291Z,7.57
2023-03-31T10:11:59.010Z,9.10
2023-03-31T10:14:33.720Z,11.53
2023-03-31T10:17:07.426Z,10.37
2023-03-31T10:19:37.852Z,8.17
2023-03-31T10:22:15.586Z,9.63
2023-03-31T10:24:45.674Z,8.00
2023-03-31T10:27:22.341Z,8.07
2023-03-31T10:29:53.908Z,6.40
2023-03-31T10:32:29.326Z,12.47
2023-03-31T10:34:58.714Z,18.60
2023-03-31T10:37:29.707Z,7.33
2023-03-31T10:40:04.548Z,9.27
2023-03-31T10:42:32.996Z,16.10
2023-03-31T10:45:26.106Z,12.93
2023-03-31T10:48:01.252Z,10.37
2023-03-31T10:50:32.341Z,8.50
2023-03-31T10:53:05.779Z,12.37
2023-03-31T10:55:41.090Z,9.13
2023-03-31T10:58:25.343Z,11.00
2023-03-31T11:01:09.181Z,13.83
2023-03-31T11:03:52.203Z,10.57
2023-03-31T11:06:27.083Z,10.73
2023-03-31T11:09:06.679Z,12.07
2023-03-31T11:11:58.095Z,8.10
2023-03-31T11:14:36.354Z,7.73
2023-03-31T11:17:12.535Z,10.63
2023-03-31T11:19:53.942Z,15.53
2023-03-31T11:22:29.740Z,13.90
2023-03-31T11:25:14.854Z,18.53
2023-03-31T11:28:13.870Z,10.37
2023-03-31T11:30:47.976Z,8.97
2023-03-31T11:33:45.647Z,6.50
2023-03-31T11:36:28.654Z,8.83
2023-03-31T11:39:18.639Z,45.63
2023-03-31T11:41:51.903Z,16.93
2023-03-31T11:44:23.040Z,43.20
2023-03-31T11:46:55.076Z,28.13
2023-03-31T11:49:26.536Z,34.97
2023-03-31T11:51:58.568Z,9.93
2023-03-31T11:54:32.528Z,10.93
2023-03-31T11:57:04.564Z,11.83
2023-03-31T11:59:33.975Z,13.07
2023-03-31T12:02:10.904Z,15.60
2023-03-31T12:04:41.580Z,15.50
2023-03-31T12:07:24.109Z,10.43
2023-03-31T12:10:03.319Z,11.43
2023-03-31T12:12:33.492Z,5.03
2023-03-31T12:15:12.455Z,9.03
2023-03-31T12:17:42.745Z,14.07
2023-03-31T12:20:19.001Z,10.63
2023-03-31T12:22:50.700Z,11.40
2023-03-31T12:25:26.149Z,12.80
2023-03-31T12:27:54.875Z,13.37
2023-03-31T12:30:31.362Z,10.17
2023-03-31T12:33:03.915Z,8.00
2023-03-31T12:35:43.045Z,8.37
2023-03-31T12:38:26.543Z,9.10
2023-03-31T12:41:03.774Z,12.30
2023-03-31T12:44:00.762Z,16.40
2023-03-31T12:46:44.986Z,12.90
2023-03-31T12:49:24.071Z,18.30
2023-03-31T12:52:12.895Z,16.13
2023-03-31T12:55:15.847Z,13.83
2023-03-31T12:57:44.092Z,14.73
2023-03-31T13:00:23.358Z,8.70
2023-03-31T13:02:52.395Z,9.53
2023-03-31T13:05:53.580Z,11.40
2023-03-31T13:08:53.607Z,12.03
2023-03-31T13:11:36.028Z,6.00
2023-03-31T13:14:06.861Z,9.27
2023-03-31T13:16:36.778Z,9.40
2023-03-31T13:19:05.438Z,7.13
2023-03-31T13:21:52.731Z,9.63
2023-03-31T13:24:23.882Z,6.60
2023-03-31T13:26:56.751Z,8.13
2023-03-31T13:29:26.949Z,9.87
2023-03-31T13:32:25.557Z,9.57
2023-03-31T13:34:59.725Z,11.33
2023-03-31T13:38:01.741Z,8.97
2023-03-31T13:40:50.142Z,13.10
2023-03-31T13:43:41.263Z,16.13
2023-03-31T13:46:31.592Z,12.47
2023-03-31T13:49:12.393Z,12.93
2023-03-31T13:51:51.663Z,13.83
2023-03-31T13:54:46.013Z,10.10
2023-03-31T13:57:36.984Z,7.30
2023-03-31T14:00:29.650Z,10.00
2023-03-31T14:03:30.635Z,12.37
2023-03-31T14:06:02.834Z,9.87
2023-03-31T14:08:48.486Z,7.73
2023-03-31T14:11:23.694Z,11.67
2023-03-31T14:14:13.203Z,8.77
2023-03-31T14:16:46.605Z,12.97
2023-03-31T14:19:37.565Z,11.07
2023-03-31T14:22:13.760Z,6.57
2023-03-31T14:24:50.769Z,7.93
2023-03-31T14:27:32.399Z,8.30
2023-03-31T14:30:08.162Z,11.70
2023-03-31T14:32:46.044Z,8.67
2023-03-31T14:35:28.898Z,11.10
2023-03-31T14:37:58.250Z,10.97
2023-03-31T14:40:26.822Z,5.10
2023-03-31T14:42:54.945Z,11.47
2023-03-31T14:45:25.586Z,11.10
2023-03-31T14:47:59.675Z,8.93
2023-03-31T14:50:35.702Z,8.43
2023-03-31T14:53:04.944Z,11.57
2023-03-31T14:55:49.429Z,5.47
2023-03-31T14:58:28.076Z,4.77
2023-03-31T15:00:56.730Z,4.97
2023-03-31T15:03:27.544Z,112.87
2023-03-31T15:05:59.489Z,11.50
2023-03-31T15:08:29.770Z,9.37
2023-03-31T15:11:11.970Z,8.63
2023-03-31T15:13:56.652Z,4.30
2023-03-31T15:16:36.255Z,4.10
2023-03-31T15:19:12.207Z,4.33
2023-03-31T15:21:40.934Z,7.23
2023-03-31T15:24:12.391Z,6.23
2023-03-31T15:26:44.814Z,7.70
2023-03-31T15:29:18.876Z,9.80
2023-03-31T15:31:48.302Z,3.57
2023-03-31T15:34:23.071Z,9.93
2023-03-31T15:36:52.052Z,12.43
2023-03-31T15:39:20.393Z,9.67
2023-03-31T15:41:49.357Z,9.30
2023-03-31T15:44:39.655Z,5.27
2023-03-31T15:47:15.073Z,6.70
2023-03-31T15:49:54.622Z,6.57
2023-03-31T15:52:36.055Z,5.60
2023-03-31T15:55:29.105Z,10.30
2023-03-31T15:57:59.401Z,9.63
2023-03-31T16:00:47.268Z,6.70
2023-03-31T16:03:20.009Z,4.70
2023-03-31T16:05:55.737Z,8.03
2023-03-31T16:08:28.228Z,12.63
2023-03-31T16:11:00.453Z,13.27
2023-03-31T16:13:30.415Z,37.90
2023-03-31T16:15:59.875Z,13.97
2023-03-31T16:18:33.984Z,10.33
2023-03-31T16:21:06.344Z,11.40
2023-03-31T16:23:38.685Z,6.73
2023-03-31T16:26:08.050Z,10.23
2023-03-31T16:28:37.786Z,9.60
2023-03-31T16:31:06.770Z,8.97
2023-03-31T16:33:55.740Z,6.17
2023-03-31T16:36:25.243Z,5.97
2023-03-31T16:38:54.082Z,12.03
2023-03-31T16:41:23.313Z,28.67
2023-03-31T16:43:54.207Z,12.07
2023-03-31T16:46:22.774Z,9.03
2023-03-31T16:48:51.632Z,13.40
2023-03-31T16:51:20.532Z,10.07
2023-03-31T16:53:50.069Z,10.20
2023-03-31T16:56:18.194Z,11.57
2023-03-31T16:58:46.294Z,10.17
2023-03-31T17:01:14.630Z,9.70
2023-03-31T17:03:43.118Z,9.90
2023-03-31T17:06:13.455Z,10.27
2023-03-31T17:08:41.827Z,9.23
2023-03-31T17:11:14.270Z,14.03
2023-03-31T17:13:43.763Z,8.47
2023-03-31T17:16:22.253Z,10.97
2023-03-31T17:18:57.571Z,10.10
2023-03-31T17:21:26.232Z,10.50
2023-03-31T17:23:54.773Z,13.03
2023-03-31T17:26:26.927Z,12.87
2023-03-31T17:28:55.163Z,17.20
2023-03-31T17:31:24.531Z,27.17
2023-03-31T17:33:52.811Z,61.40
2023-03-31T17:36:22.290Z,101.87
2023-03-31T17:38:50.477Z,160.73
2023-03-31T17:41:18.767Z,259.40
2023-03-31T17:43:48.925Z,217.57
2023-03-31T17:46:17.764Z,138.23
2023-03-31T17:48:45.993Z,57.63
2023-03-31T17:51:16.096Z,42.90
2023-03-31T17:53:45.629Z,20.30
2023-03-31T17:56:14.977Z,13.70
2023-03-31T17:58:43.014Z,17.63
2023-03-31T18:01:13.520Z,14.07
2023-03-31T18:03:42.333Z,12.17
2023-03-31T18:06:11.812Z,20.47
2023-03-31T18:08:41.649Z,37.93
2023-03-31T18:11:13.359Z,27.57
2023-03-31T18:13:41.640Z,21.63
2023-03-31T18:16:11.996Z,86.37
2023-03-31T18:18:42.554Z,50.33
2023-03-31T18:21:12.993Z,28.90
2023-03-31T18:23:41.936Z,23.80
2023-03-31T18:26:11.316Z,25.47
2023-03-31T18:28:40.717Z,20.23
2023-03-31T18:31:10.044Z,15.87
2023-03-31T18:33:39.051Z,124.03
2023-03-31T18:36:09.698Z,52.93
2023-03-31T18:38:37.934Z,15.87
2023-03-31T18:41:06.124Z,14.50
2023-03-31T18:43:34.711Z,16.47
2023-03-31T18:46:02.995Z,11.77
2023-03-31T18:48:31.370Z,14.40
2023-03-31T18:50:59.643Z,12.77
2023-03-31T18:53:30.086Z,12.30
2023-03-31T18:56:00.001Z,21.63
2023-03-31T18:58:30.176Z,16.53
2023-03-31T19:00:59.279Z,16.87
2023-03-31T19:03:27.785Z,16.43
2023-03-31T19:06:01.949Z,16.47
2023-03-31T19:08:32.684Z,24.73
2023-03-31T19:11:08.537Z,19.00
2023-03-31T19:13:36.758Z,13.50
2023-03-31T19:16:05.104Z,17.40
2023-03-31T19:18:33.418Z,15.00
2023-03-31T19:21:02.135Z,16.23
2023-03-31T19:23:32.514Z,12.07
2023-03-31T19:26:02.531Z,14.47
2023-03-31T19:28:30.924Z,11.47
2023-03-31T19:30:59.714Z,12.30
2023-03-31T19:33:28.365Z,14.20
2023-03-31T19:35:56.756Z,13.33
2023-03-31T19:38:26.945Z,14.70
2023-03-31T19:40:57.241Z,13.80
2023-03-31T19:43:27.617Z,19.63
2023-03-31T19:45:58.026Z,18.30
2023-03-31T19:48:27.527Z,14.20
2023-03-31T19:50:57.683Z,13.33
2023-03-31T19:53:25.906Z,14.67
2023-03-31T19:56:00.734Z,15.53
2023-03-31T19:58:30.238Z,13.27
2023-03-31T20:00:59.382Z,16.13
2023-03-31T20:03:28.393Z,21.67
2023-03-31T20:06:04.053Z,15.83
2023-03-31T20:08:33.493Z,15.07
2023-03-31T20:11:03.893Z,17.40
2023-03-31T20:13:35.801Z,19.27
2023-03-31T20:16:06.583Z,23.57
2023-03-31T20:18:36.496Z,24.30
2023-03-31T20:21:07.089Z,18.87
2023-03-31T20:23:36.515Z,12.40
2023-03-31T20:26:06.676Z,13.37
2023-03-31T20:28:36.938Z,12.80
2023-03-31T20:31:08.038Z,12.10
2023-03-31T20:33:36.428Z,10.10
2023-03-31T20:36:07.895Z,14.03
2023-03-31T20:38:38.359Z,14.37
2023-03-31T20:41:08.825Z,13.80
2023-03-31T20:43:37.109Z,18.23
2023-03-31T20:46:07.510Z,13.77
2023-03-31T20:48:37.600Z,9.67
2023-03-31T20:51:07.186Z,18.63
2023-03-31T20:53:41.755Z,21.80
2023-03-31T20:56:12.024Z,15.13
2023-03-31T20:58:41.781Z,18.93
2023-03-31T21:01:11.878Z,15.70
2023-03-31T21:03:40.322Z,20.73
2023-03-31T21:06:11.368Z,20.47
2023-03-31T21:08:42.794Z,14.10
2023-03-31T21:11:12.534Z,16.50
2023-03-31T21:13:41.000Z,14.83
2023-03-31T21:16:09.183Z,17.80
2023-03-31T21:18:37.736Z,17.73
2023-03-31T21:21:07.663Z,24.67
2023-03-31T21:23:36.329Z,16.17
2023-03-31T21:26:06.268Z,17.40
2023-03-31T21:28:38.584Z,18.43
2023-03-31T21:31:08.362Z,17.10
2023-03-31T21:33:38.563Z,23.70
2023-03-31T21:36:08.036Z,17.13
2023-03-31T21:38:37.200Z,21.30
2023-03-31T21:41:09.783Z,17.80
2023-03-31T21:43:39.814Z,19.77
2023-03-31T21:46:08.506Z,17.83
2023-03-31T21:48:37.151Z,18.67
2023-03-31T21:51:05.590Z,22.43
2023-03-31T21:53:33.685Z,17.63
2023-03-31T21:56:01.851Z,14.63
2023-03-31T21:58:31.180Z,16.00
2023-03-31T22:01:03.922Z,14.73
2023-03-31T22:03:34.527Z,13.33
2023-03-31T22:06:03.962Z,13.87
2023-03-31T22:08:33.030Z,13.07
2023-03-31T22:11:01.684Z,16.03
2023-03-31T22:13:31.329Z,18.90
2023-03-31T22:16:02.095Z,15.13
2023-03-31T22:18:30.988Z,14.43
2023-03-31T22:20:59.344Z,14.13
2023-03-31T22:23:27.782Z,17.53
2023-03-31T22:25:56.059Z,14.87
2023-03-31T22:28:24.200Z,15.53
2023-03-31T22:30:52.384Z,8.87
2023-03-31T22:33:21.956Z,9.23
2023-03-31T22:35:50.606Z,14.03
2023-03-31T22:38:18.895Z,11.13
2023-03-31T22:40:47.020Z,8.97
2023-03-31T22:43:15.233Z,10.00
2023-03-31T22:45:43.373Z,12.27
2023-03-31T22:48:11.580Z,11.70
2023-03-31T22:50:41.362Z,11.10
2023-03-31T22:53:09.986Z,14.70
2023-03-31T22:55:42.553Z,10.63
2023-03-31T22:58:11.003Z,10.07
2023-03-31T23:00:39.238Z,10.63
2023-03-31T23:03:07.493Z,10.47
2023-03-31T23:05:36.031Z,14.13
2023-03-31T23:08:06.383Z,7.17
2023-03-31T23:10:34.517Z,8.33
2023-03-31T23:13:03.691Z,8.47
2023-03-31T23:15:32.273Z,7.63
2023-03-31T23:18:00.705Z,10.57
2023-03-31T23:20:29.162Z,6.30
2023-03-31T23:22:58.376Z,9.33
2023-03-31T23:25:27.959Z,11.43
2023-03-31T23:27:57.305Z,10.73
2023-03-31T23:30:25.629Z,7.87
2023-03-31T23:32:55.215Z,5.93
2023-03-31T23:35:23.438Z,12.13
2023-03-31T23:37:51.761Z,6.93
2023-03-31T23:40:20.035Z,9.60
2023-03-31T23:42:49.608Z,7.87
2023-03-31T23:45:18.621Z,6.27
2023-03-31T23:47:46.762Z,6.77
2023-03-31T23:50:14.890Z,7.30
2023-03-31T23:52:42.947Z,7.70
2023-03-31T23:55:13.097Z,4.27
2023-03-31T23:57:41.363Z,6.23
